createdAt,value
2019-05-29T00:00:09.887Z,8.50
2019-05-29T00:05:12.766Z,8.40
2019-05-29T00:07:43.349Z,8.50
2019-05-29T00:10:14.436Z,8.40
2019-05-29T00:12:45.219Z,8.30
2019-05-29T00:15:18.736Z,8.30
2019-05-29T00:17:51.656Z,8.20
2019-05-29T00:20:22.817Z,8.30
2019-05-29T00:22:54.436Z,8.30
2019-05-29T00:25:25.225Z,8.20
2019-05-29T00:27:56.281Z,8.20
2019-05-29T00:30:26.964Z,8.10
2019-05-29T00:32:57.597Z,8.10
2019-05-29T00:35:28.344Z,8.10
2019-05-29T00:37:59.112Z,8.10
2019-05-29T00:40:30.010Z,8.10
2019-05-29T00:43:00.707Z,8.10
2019-05-29T00:45:31.296Z,8.00
2019-05-29T00:48:01.948Z,7.80
2019-05-29T00:50:33.023Z,7.90
2019-05-29T00:53:03.663Z,8.20
2019-05-29T00:55:34.335Z,8.00
2019-05-29T00:58:05.147Z,7.90
2019-05-29T01:00:36.005Z,7.90
2019-05-29T01:03:06.820Z,7.90
2019-05-29T01:05:37.389Z,8.00
2019-05-29T01:08:08.026Z,8.10
2019-05-29T01:10:38.985Z,8.00
2019-05-29T01:13:09.359Z,8.00
2019-05-29T01:15:39.795Z,8.00
2019-05-29T01:18:11.626Z,8.00
2019-05-29T01:20:42.497Z,8.00
2019-05-29T01:23:14.134Z,7.90
2019-05-29T01:25:45.005Z,8.00
2019-05-29T01:28:16.858Z,7.90
2019-05-29T01:30:51.438Z,7.90
2019-05-29T01:33:23.296Z,8.00
2019-05-29T01:35:52.795Z,8.00
2019-05-29T01:38:23.926Z,8.00
2019-05-29T01:40:54.430Z,7.90
2019-05-29T01:43:27.707Z,7.90
2019-05-29T01:45:58.420Z,7.90
2019-05-29T01:48:29.142Z,8.00
2019-05-29T01:51:02.574Z,7.90
2019-05-29T01:53:33.205Z,7.80
2019-05-29T01:56:03.877Z,7.80
2019-05-29T01:58:34.495Z,7.80
2019-05-29T02:01:05.224Z,7.80
2019-05-29T02:03:38.110Z,7.80
2019-05-29T02:06:08.658Z,7.70
2019-05-29T02:08:39.236Z,7.60
2019-05-29T02:11:09.188Z,7.60
2019-05-29T02:13:41.488Z,7.60
2019-05-29T02:16:12.088Z,7.70
2019-05-29T02:18:42.742Z,7.80
2019-05-29T02:21:13.592Z,7.70
2019-05-29T02:23:44.005Z,7.70
2019-05-29T02:26:16.020Z,7.60
2019-05-29T02:28:47.518Z,7.60
2019-05-29T02:31:19.634Z,7.70
2019-05-29T02:33:50.619Z,7.80
2019-05-29T02:36:22.348Z,7.80
2019-05-29T02:38:52.958Z,7.80
2019-05-29T02:41:25.713Z,7.70
2019-05-29T02:43:56.139Z,7.80
2019-05-29T02:46:30.137Z,7.90
2019-05-29T02:48:59.420Z,8.00
2019-05-29T02:51:30.795Z,8.10
2019-05-29T02:54:01.475Z,8.20
2019-05-29T02:56:32.577Z,8.10
2019-05-29T02:59:05.567Z,8.10
2019-05-29T03:01:36.233Z,8.10
2019-05-29T03:04:06.803Z,8.30
2019-05-29T03:06:37.572Z,8.30
2019-05-29T03:09:08.270Z,8.40
2019-05-29T03:11:39.136Z,8.30
2019-05-29T03:14:09.608Z,8.20
2019-05-29T03:16:40.414Z,8.20
2019-05-29T03:19:11.066Z,8.10
2019-05-29T03:21:41.933Z,8.10
2019-05-29T03:24:14.232Z,8.10
2019-05-29T03:26:44.615Z,8.10
2019-05-29T03:29:15.327Z,8.20
2019-05-29T03:31:48.162Z,8.20
2019-05-29T03:34:18.325Z,8.30
2019-05-29T03:36:49.406Z,8.40
2019-05-29T03:39:19.932Z,8.40
2019-05-29T03:41:50.766Z,8.30
2019-05-29T03:44:21.482Z,8.40
2019-05-29T03:46:52.323Z,8.40
2019-05-29T03:49:22.827Z,8.50
2019-05-29T03:51:53.972Z,8.60
2019-05-29T03:54:26.458Z,8.70
2019-05-29T03:56:59.940Z,8.80
2019-05-29T03:59:32.691Z,8.80
2019-05-29T04:02:03.288Z,8.70
2019-05-29T04:04:36.228Z,8.80
2019-05-29T04:07:07.060Z,8.70
2019-05-29T04:09:37.800Z,8.80
2019-05-29T04:12:08.745Z,8.90
2019-05-29T04:14:40.521Z,9.00
2019-05-29T04:17:14.041Z,9.10
2019-05-29T04:19:45.150Z,9.10
2019-05-29T04:22:18.902Z,9.20
2019-05-29T04:24:51.153Z,9.10
2019-05-29T04:27:25.546Z,9.00
2019-05-29T04:29:58.627Z,8.90
2019-05-29T04:32:29.836Z,9.10
2019-05-29T04:35:00.438Z,9.20
2019-05-29T04:37:32.600Z,9.40
2019-05-29T04:40:03.600Z,9.50
2019-05-29T04:42:35.783Z,9.70
2019-05-29T04:45:08.384Z,9.80
2019-05-29T04:47:43.987Z,9.80
2019-05-29T04:53:29.417Z,9.80
2019-05-29T04:56:28.731Z,9.90
2019-05-29T04:59:39.166Z,10.00
2019-05-29T05:08:46.043Z,10.00
2019-05-29T05:11:21.358Z,10.50
2019-05-29T05:17:26.862Z,10.60
2019-05-29T05:20:03.019Z,10.90
2019-05-29T05:22:34.335Z,11.00
2019-05-29T05:25:06.234Z,10.90
2019-05-29T05:27:51.588Z,11.20
2019-05-29T05:30:25.606Z,11.40
2019-05-29T05:32:57.749Z,11.10
2019-05-29T05:35:38.895Z,11.00
2019-05-29T05:38:13.148Z,10.90
2019-05-29T05:40:47.564Z,11.00
2019-05-29T05:48:27.158Z,10.80
2019-05-29T05:51:01.649Z,10.90
2019-05-29T05:53:42.136Z,11.00
2019-05-29T05:56:13.955Z,11.30
2019-05-29T05:58:47.805Z,11.60
2019-05-29T06:01:19.293Z,11.50
2019-05-29T06:03:50.264Z,11.60
2019-05-29T06:06:22.951Z,11.70
2019-05-29T06:08:54.713Z,11.20
2019-05-29T06:11:29.922Z,11.30
2019-05-29T06:14:01.013Z,11.10
2019-05-29T06:16:32.954Z,11.20
2019-05-29T06:19:06.079Z,11.30
2019-05-29T06:21:39.274Z,11.30
2019-05-29T06:24:11.648Z,11.50
2019-05-29T06:26:43.064Z,11.40
2019-05-29T06:29:14.022Z,11.50
2019-05-29T06:31:44.849Z,11.50
2019-05-29T06:34:15.630Z,11.40
2019-05-29T06:36:48.140Z,11.60
2019-05-29T06:39:22.236Z,11.20
2019-05-29T06:42:04.768Z,11.40
2019-05-29T06:44:36.609Z,11.40
2019-05-29T06:47:08.919Z,11.50
2019-05-29T06:49:44.354Z,11.90
2019-05-29T06:55:03.771Z,11.90
2019-05-29T06:57:38.107Z,11.90
2019-05-29T07:00:34.096Z,11.40
2019-05-29T07:02:47.965Z,11.50
2019-05-29T07:05:21.841Z,11.70
2019-05-29T07:07:52.531Z,12.10
2019-05-29T07:10:23.319Z,12.20
2019-05-29T07:12:54.114Z,12.20
2019-05-29T07:15:24.901Z,12.10
2019-05-29T07:17:55.370Z,12.00
2019-05-29T07:20:28.109Z,12.10
2019-05-29T07:22:59.033Z,12.00
2019-05-29T07:25:29.835Z,12.10
2019-05-29T07:28:00.551Z,11.50
2019-05-29T07:30:32.160Z,11.60
2019-05-29T07:33:02.718Z,11.60
2019-05-29T07:35:33.726Z,11.60
2019-05-29T07:38:04.772Z,11.70
2019-05-29T07:40:36.031Z,11.50
2019-05-29T07:43:06.840Z,12.00
2019-05-29T07:45:37.943Z,11.70
2019-05-29T07:48:10.738Z,11.70
2019-05-29T07:50:42.138Z,11.90
2019-05-29T07:53:15.176Z,12.20
2019-05-29T07:55:46.765Z,12.40
2019-05-29T07:58:17.730Z,12.10
2019-05-29T08:01:09.996Z,12.40
2019-05-29T08:03:21.962Z,11.80
2019-05-29T08:05:53.387Z,12.00
2019-05-29T08:08:24.149Z,12.10
2019-05-29T08:10:54.966Z,12.00
2019-05-29T08:13:25.451Z,12.40
2019-05-29T08:16:02.679Z,12.40
2019-05-29T08:18:28.744Z,12.00
2019-05-29T08:21:00.031Z,12.10
2019-05-29T08:26:00.359Z,12.50
2019-05-29T08:28:31.158Z,12.00
2019-05-29T08:31:01.672Z,12.20
2019-05-29T08:33:32.257Z,12.20
2019-05-29T08:36:02.839Z,12.90
2019-05-29T08:41:06.151Z,12.70
2019-05-29T08:43:37.389Z,12.70
2019-05-29T08:46:09.882Z,12.20
2019-05-29T08:48:41.782Z,12.30
2019-05-29T08:51:12.882Z,12.20
2019-05-29T08:53:44.130Z,12.20
2019-05-29T08:56:15.879Z,11.90
2019-05-29T08:58:50.517Z,11.90
2019-05-29T09:01:21.504Z,12.30
2019-05-29T09:03:55.016Z,11.50
2019-05-29T09:06:25.844Z,11.90
2019-05-29T09:09:06.934Z,11.90
2019-05-29T09:11:38.915Z,12.10
2019-05-29T09:14:11.426Z,12.00
2019-05-29T09:17:42.365Z,12.40
2019-05-29T09:30:52.335Z,12.70
2019-05-29T09:33:24.518Z,12.30
2019-05-29T09:35:57.183Z,12.60
2019-05-29T09:38:28.060Z,12.40
2019-05-29T09:41:01.089Z,12.30
2019-05-29T09:43:31.810Z,12.30
2019-05-29T09:46:02.674Z,12.40
2019-05-29T09:48:48.716Z,12.30
2019-05-29T09:51:20.798Z,12.70
2019-05-29T09:53:38.980Z,12.50
2019-05-29T09:56:10.188Z,12.60
2019-05-29T09:58:43.970Z,12.70
2019-05-29T10:01:23.573Z,12.70
2019-05-29T10:03:48.606Z,12.60
2019-05-29T10:06:19.571Z,12.50
2019-05-29T10:08:50.605Z,12.70
2019-05-29T10:11:21.332Z,12.70
2019-05-29T10:13:53.897Z,12.30
2019-05-29T10:16:25.086Z,12.50
2019-05-29T10:18:59.869Z,12.50
2019-05-29T10:21:40.304Z,12.50
2019-05-29T10:24:04.122Z,12.50
2019-05-29T10:26:35.850Z,12.60
2019-05-29T10:29:09.082Z,12.80
2019-05-29T10:31:56.868Z,12.90
2019-05-29T10:34:27.868Z,13.10
2019-05-29T10:37:02.347Z,13.00
2019-05-29T10:39:36.741Z,12.90
2019-05-29T10:42:07.489Z,13.00
2019-05-29T10:45:06.631Z,12.80
2019-05-29T10:47:37.436Z,12.80
2019-05-29T10:50:10.035Z,12.70
2019-05-29T10:52:41.171Z,12.50
2019-05-29T10:55:13.844Z,12.70
2019-05-29T10:57:46.570Z,13.10
2019-05-29T11:00:20.328Z,13.50
2019-05-29T11:02:57.060Z,13.50
2019-05-29T11:05:34.883Z,13.70
2019-05-29T11:08:06.505Z,12.90
2019-05-29T11:10:37.526Z,13.40
2019-05-29T11:13:09.603Z,13.70
2019-05-29T11:15:40.295Z,13.90
2019-05-29T11:18:11.324Z,14.00
2019-05-29T11:20:47.245Z,14.00
2019-05-29T11:23:19.050Z,14.30
2019-05-29T11:25:51.962Z,14.20
2019-05-29T11:28:22.478Z,13.50
2019-05-29T11:30:55.558Z,13.70
2019-05-29T11:33:31.235Z,13.80
2019-05-29T11:36:10.704Z,13.30
2019-05-29T11:38:34.453Z,13.80
2019-05-29T11:41:25.057Z,13.90
2019-05-29T11:43:41.428Z,13.80
2019-05-29T11:46:12.192Z,14.00
2019-05-29T11:48:43.233Z,14.30
2019-05-29T11:51:13.658Z,14.80
2019-05-29T11:53:44.484Z,15.20
2019-05-29T11:56:14.916Z,14.70
2019-05-29T11:58:48.451Z,14.50
2019-05-29T12:01:19.191Z,14.00
2019-05-29T12:04:13.766Z,14.40
2019-05-29T12:06:22.261Z,14.30
2019-05-29T12:08:53.667Z,15.00
2019-05-29T12:11:24.462Z,15.20
2019-05-29T12:13:56.133Z,15.40
2019-05-29T12:16:26.664Z,15.40
2019-05-29T12:18:57.833Z,15.30
2019-05-29T12:21:28.394Z,15.10
2019-05-29T12:24:00.308Z,15.10
2019-05-29T12:26:40.036Z,16.10
2019-05-29T12:29:12.209Z,18.50
2019-05-29T12:31:44.430Z,17.80
2019-05-29T12:34:19.048Z,18.40
2019-05-29T12:36:47.336Z,20.10
2019-05-29T12:39:17.957Z,20.90
2019-05-29T12:41:48.692Z,21.10
2019-05-29T12:44:21.717Z,21.10
2019-05-29T12:46:53.485Z,21.70
2019-05-29T12:49:24.243Z,20.60
2019-05-29T12:51:57.658Z,19.40
2019-05-29T12:54:28.733Z,18.90
2019-05-29T12:57:04.135Z,19.20
2019-05-29T12:59:35.173Z,19.30
2019-05-29T13:02:05.776Z,18.70
2019-05-29T13:05:05.061Z,18.60
2019-05-29T13:07:09.506Z,18.80
2019-05-29T13:09:43.500Z,19.90
2019-05-29T13:12:14.016Z,19.90
2019-05-29T13:14:44.925Z,20.30
2019-05-29T13:17:15.548Z,19.40
2019-05-29T13:19:46.500Z,18.30
2019-05-29T13:22:17.130Z,18.70
2019-05-29T13:24:48.004Z,18.40
2019-05-29T13:27:18.796Z,20.30
2019-05-29T13:29:49.725Z,19.70
2019-05-29T13:32:20.355Z,19.20
2019-05-29T13:34:51.173Z,19.20
2019-05-29T13:37:22.195Z,21.30
2019-05-29T13:39:55.930Z,21.90
2019-05-29T13:42:34.289Z,22.60
2019-05-29T13:45:17.690Z,21.40
2019-05-29T13:47:51.685Z,22.20
2019-05-29T13:50:23.102Z,21.70
2019-05-29T13:52:53.916Z,22.30
2019-05-29T13:55:27.520Z,22.10
2019-05-29T13:57:59.436Z,22.20
2019-05-29T14:00:34.244Z,20.80
2019-05-29T14:03:07.316Z,21.90
2019-05-29T14:05:41.024Z,20.90
2019-05-29T14:08:17.939Z,20.40
2019-05-29T14:10:49.023Z,20.40
2019-05-29T14:13:24.709Z,20.90
2019-05-29T14:15:55.569Z,19.00
2019-05-29T14:18:26.540Z,19.70
2019-05-29T14:23:27.257Z,18.80
2019-05-29T14:25:58.049Z,19.10
2019-05-29T14:28:29.964Z,18.60
2019-05-29T14:31:01.824Z,18.50
2019-05-29T14:33:32.482Z,18.80
2019-05-29T14:36:05.837Z,18.20
2019-05-29T14:38:37.248Z,16.80
2019-05-29T14:41:11.990Z,16.60
2019-05-29T14:43:42.941Z,16.60
2019-05-29T14:46:13.701Z,17.30
2019-05-29T14:48:44.889Z,17.80
2019-05-29T14:51:20.252Z,16.00
2019-05-29T14:54:13.221Z,16.70
2019-05-29T14:56:51.198Z,16.50
2019-05-29T14:59:23.209Z,16.80
2019-05-29T15:01:54.073Z,17.40
2019-05-29T15:04:24.988Z,17.60
2019-05-29T15:06:59.606Z,18.60
2019-05-29T15:09:30.595Z,18.40
2019-05-29T15:12:01.148Z,18.00
2019-05-29T15:14:34.969Z,18.70
2019-05-29T15:17:07.084Z,17.90
2019-05-29T15:19:38.022Z,18.00
2019-05-29T15:22:09.473Z,17.70
2019-05-29T15:24:58.898Z,17.70
2019-05-29T15:27:13.853Z,17.70
2019-05-29T15:29:45.279Z,18.50
2019-05-29T15:32:16.679Z,18.50
2019-05-29T15:34:49.095Z,17.60
2019-05-29T15:37:24.790Z,17.00
2019-05-29T15:40:01.789Z,17.00
2019-05-29T15:42:33.837Z,16.60
2019-05-29T15:45:09.913Z,17.00
2019-05-29T15:47:40.420Z,16.00
2019-05-29T15:50:13.693Z,15.70
2019-05-29T15:52:44.624Z,15.90
2019-05-29T15:55:28.388Z,14.70
2019-05-29T15:57:48.950Z,14.50
2019-05-29T16:00:21.420Z,14.50
2019-05-29T16:02:52.132Z,13.90
2019-05-29T16:05:23.302Z,14.30
2019-05-29T16:08:00.005Z,14.10
2019-05-29T16:10:31.523Z,13.50
2019-05-29T16:13:02.077Z,14.00
2019-05-29T16:15:32.923Z,14.00
2019-05-29T16:18:03.718Z,14.00
2019-05-29T16:20:34.514Z,14.00
2019-05-29T16:23:05.330Z,14.00
2019-05-29T16:25:40.514Z,13.70
2019-05-29T16:28:13.312Z,13.90
2019-05-29T16:30:44.021Z,13.80
2019-05-29T16:33:15.036Z,13.80
2019-05-29T16:35:46.620Z,14.00
2019-05-29T16:38:17.620Z,13.60
2019-05-29T16:40:48.572Z,13.70
2019-05-29T16:43:20.139Z,13.60
2019-05-29T16:45:50.696Z,13.80
2019-05-29T16:48:22.707Z,13.70
2019-05-29T16:50:54.582Z,13.80
2019-05-29T16:53:25.287Z,13.90
2019-05-29T16:55:56.100Z,13.70
2019-05-29T16:58:26.860Z,13.60
2019-05-29T17:00:57.638Z,13.60
2019-05-29T17:03:29.156Z,13.70
2019-05-29T17:06:00.719Z,13.70
2019-05-29T17:08:31.703Z,13.50
2019-05-29T17:11:05.154Z,13.50
2019-05-29T17:13:37.028Z,13.60
2019-05-29T17:16:08.028Z,13.50
2019-05-29T17:18:39.000Z,13.20
2019-05-29T17:21:10.075Z,13.30
2019-05-29T17:23:40.786Z,13.30
2019-05-29T17:26:18.679Z,13.40
2019-05-29T17:28:53.217Z,13.20
2019-05-29T17:31:25.052Z,13.30
2019-05-29T17:33:56.114Z,13.30
2019-05-29T17:36:28.768Z,13.20
2019-05-29T17:39:02.698Z,13.20
2019-05-29T17:41:49.658Z,12.90
2019-05-29T17:44:22.098Z,12.80
2019-05-29T17:46:53.500Z,12.70
2019-05-29T17:49:32.793Z,12.40
2019-05-29T17:51:58.735Z,12.50
2019-05-29T17:54:29.601Z,12.40
2019-05-29T17:57:06.360Z,12.30
2019-05-29T17:59:37.300Z,12.30
2019-05-29T18:02:09.322Z,12.30
2019-05-29T18:04:40.202Z,12.10
2019-05-29T18:07:11.577Z,12.00
2019-05-29T18:09:42.498Z,12.00
2019-05-29T18:12:13.662Z,12.00
2019-05-29T18:14:45.579Z,11.90
2019-05-29T18:17:17.448Z,11.90
2019-05-29T18:19:48.914Z,11.80
2019-05-29T18:22:19.801Z,11.80
2019-05-29T18:24:50.933Z,11.70
2019-05-29T18:27:21.902Z,11.60
2019-05-29T18:29:54.473Z,11.50
2019-05-29T18:32:26.516Z,11.50
2019-05-29T18:34:57.532Z,11.40
2019-05-29T18:37:28.437Z,11.30
2019-05-29T18:39:59.033Z,11.40
2019-05-29T18:42:29.706Z,11.20
2019-05-29T18:45:00.593Z,11.20
2019-05-29T18:47:31.462Z,11.20
2019-05-29T18:52:32.864Z,11.10
2019-05-29T18:55:03.867Z,11.10
2019-05-29T18:57:34.813Z,11.00
2019-05-29T19:00:06.541Z,11.00
2019-05-29T19:02:37.356Z,10.90
2019-05-29T19:05:08.904Z,10.80
2019-05-29T19:07:39.902Z,10.80
2019-05-29T19:10:10.817Z,10.70
2019-05-29T19:12:44.602Z,10.60
2019-05-29T19:15:15.752Z,10.50
2019-05-29T19:17:46.798Z,10.50
2019-05-29T19:20:19.394Z,10.40
2019-05-29T19:22:50.404Z,10.30
2019-05-29T19:25:20.947Z,10.20
2019-05-29T19:27:52.926Z,10.10
2019-05-29T19:30:24.883Z,10.10
2019-05-29T19:32:55.506Z,9.90
2019-05-29T19:35:29.586Z,9.90
2019-05-29T19:38:00.549Z,9.80
2019-05-29T19:40:34.580Z,9.70
2019-05-29T19:43:06.614Z,9.60
2019-05-29T19:45:37.912Z,9.50
2019-05-29T19:48:09.117Z,9.50
2019-05-29T19:50:42.475Z,9.30
2019-05-29T19:53:13.380Z,9.30
2019-05-29T19:55:46.977Z,9.20
2019-05-29T19:58:29.796Z,9.20
2019-05-29T20:01:03.633Z,9.00
2019-05-29T20:03:34.873Z,8.90
2019-05-29T20:06:05.641Z,8.90
2019-05-29T20:08:39.406Z,8.80
2019-05-29T20:11:20.693Z,8.60
2019-05-29T20:13:51.368Z,8.50
2019-05-29T20:16:21.899Z,8.40
2019-05-29T20:18:52.557Z,8.40
2019-05-29T20:21:23.251Z,8.20
2019-05-29T20:23:53.869Z,8.20
2019-05-29T20:26:24.296Z,8.10
2019-05-29T20:28:55.208Z,8.00
2019-05-29T20:31:28.868Z,7.90
2019-05-29T20:33:59.464Z,7.90
2019-05-29T20:36:33.249Z,7.80
2019-05-29T20:39:02.360Z,7.50
2019-05-29T20:41:34.141Z,7.70
2019-05-29T20:44:07.784Z,7.60
2019-05-29T20:46:38.701Z,7.60
2019-05-29T20:49:09.355Z,7.60
2019-05-29T20:54:09.627Z,7.60
2019-05-29T20:56:40.232Z,7.70
2019-05-29T20:59:10.755Z,7.70
2019-05-29T21:01:46.004Z,7.70
2019-05-29T21:04:13.560Z,7.70
2019-05-29T21:06:44.135Z,7.80
2019-05-29T21:09:14.590Z,7.80
2019-05-29T21:11:45.488Z,7.80
2019-05-29T21:14:16.180Z,7.80
2019-05-29T21:16:46.933Z,7.80
2019-05-29T21:19:17.391Z,7.70
2019-05-29T21:21:47.964Z,7.80
2019-05-29T21:24:18.468Z,7.70
2019-05-29T21:26:49.160Z,7.80
2019-05-29T21:29:21.988Z,7.80
2019-05-29T21:31:53.559Z,7.80
2019-05-29T21:34:24.096Z,7.80
2019-05-29T21:36:54.740Z,7.80
2019-05-29T21:39:25.176Z,7.80
2019-05-29T21:41:55.540Z,7.70
2019-05-29T21:44:26.091Z,7.70
2019-05-29T21:46:56.602Z,7.70
2019-05-29T21:49:30.885Z,7.60
2019-05-29T21:54:28.934Z,7.50
2019-05-29T21:56:59.456Z,7.50
2019-05-29T21:59:30.284Z,7.40
2019-05-29T22:02:00.889Z,7.40
2019-05-29T22:04:31.519Z,7.30
2019-05-29T22:07:05.140Z,7.30
2019-05-29T22:09:36.273Z,7.30
2019-05-29T22:12:06.782Z,7.20
2019-05-29T22:14:37.442Z,7.20
2019-05-29T22:17:08.004Z,7.10
2019-05-29T22:19:41.763Z,7.10
2019-05-29T22:22:14.641Z,7.00
2019-05-29T22:24:45.478Z,7.00
2019-05-29T22:27:15.922Z,7.00
2019-05-29T22:29:46.788Z,6.90
2019-05-29T22:32:17.380Z,6.90
2019-05-29T22:34:48.002Z,6.80
2019-05-29T22:37:18.535Z,6.80
2019-05-29T22:39:49.232Z,6.80
2019-05-29T22:42:19.740Z,6.80
2019-05-29T22:44:51.575Z,6.80
2019-05-29T22:47:22.058Z,6.70
2019-05-29T22:49:54.248Z,6.70
2019-05-29T22:52:27.807Z,6.70
2019-05-29T22:54:58.416Z,6.60
2019-05-29T22:57:29.313Z,6.50
2019-05-29T23:00:00.355Z,6.50
2019-05-29T23:02:30.683Z,6.50
